createdAt,value
2023-04-15T00:01:11.734Z,94437.97
2023-04-15T00:03:39.862Z,94431.75
2023-04-15T00:06:09.746Z,94425.03
2023-04-15T00:08:37.446Z,94421.53
2023-04-15T00:11:06.001Z,94420.47
2023-04-15T00:13:34.053Z,94420.72
2023-04-15T00:16:02.317Z,94429.06
2023-04-15T00:18:31.603Z,94416.16
2023-04-15T00:20:59.402Z,94417.50
2023-04-15T00:23:29.117Z,94412.66
2023-04-15T00:25:56.887Z,94412.38
2023-04-15T00:28:24.790Z,94402.44
2023-04-15T00:30:52.511Z,94404.06
2023-04-15T00:33:20.210Z,94398.44
2023-04-15T00:35:47.948Z,94404.06
2023-04-15T00:38:15.718Z,94404.84
2023-04-15T00:40:45.161Z,94396.00
2023-04-15T00:43:12.938Z,94399.22
2023-04-15T00:45:41.237Z,94388.44
2023-04-15T00:48:09.652Z,94391.94
2023-04-15T00:50:37.408Z,94387.63
2023-04-15T00:53:05.248Z,94383.34
2023-04-15T00:55:33.019Z,94389.78
2023-04-15T00:58:02.114Z,94393.81
2023-04-15T01:00:31.207Z,94390.88
2023-04-15T01:02:59.059Z,94396.25
2023-04-15T01:05:27.503Z,94392.50
2023-04-15T01:07:56.343Z,94391.94
2023-04-15T01:10:24.148Z,94394.41
2023-04-15T01:12:52.481Z,94394.41
2023-04-15T01:15:21.907Z,94396.00
2023-04-15T01:17:49.931Z,94397.34
2023-04-15T01:20:18.157Z,94399.22
2023-04-15T01:22:46.527Z,94391.16
2023-04-15T01:25:18.742Z,94393.31
2023-04-15T01:27:57.042Z,94393.91
2023-04-15T01:30:24.723Z,94393.91
2023-04-15T01:32:52.516Z,94403.31
2023-04-15T01:35:21.254Z,94397.06
2023-04-15T01:37:49.359Z,94396.53
2023-04-15T01:40:17.390Z,94398.16
2023-04-15T01:42:45.071Z,94395.72
2023-04-15T01:45:14.336Z,94397.06
2023-04-15T01:47:42.136Z,94398.94
2023-04-15T01:50:10.689Z,94398.66
2023-04-15T01:52:38.403Z,94393.75
2023-04-15T01:55:08.101Z,94394.03
2023-04-15T01:57:35.772Z,94400.47
2023-04-15T02:00:03.663Z,94394.28
2023-04-15T02:02:32.892Z,94381.63
2023-04-15T02:05:00.763Z,94395.09
2023-04-15T02:07:28.950Z,94393.75
2023-04-15T02:09:56.743Z,94390.00
2023-04-15T02:12:24.409Z,94393.22
2023-04-15T02:14:52.077Z,94386.75
2023-04-15T02:17:19.791Z,94386.22
2023-04-15T02:19:49.500Z,94401.00
2023-04-15T02:22:18.642Z,94397.22
2023-04-15T02:24:47.432Z,94397.22
2023-04-15T02:27:18.140Z,94387.31
2023-04-15T02:29:45.968Z,94386.22
2023-04-15T02:32:14.045Z,94381.97
2023-04-15T02:34:42.849Z,94392.69
2023-04-15T02:37:12.869Z,94390.06
2023-04-15T02:39:40.565Z,94386.56
2023-04-15T02:42:08.398Z,94391.59
2023-04-15T02:44:36.783Z,94385.16
2023-04-15T02:47:06.623Z,94382.47
2023-04-15T02:49:34.393Z,94380.81
2023-04-15T02:52:02.060Z,94380.31
2023-04-15T02:54:32.618Z,94374.91
2023-04-15T02:57:01.636Z,94376.28
2023-04-15T02:59:29.623Z,94373.34
2023-04-15T03:02:00.905Z,94375.53
2023-04-15T03:04:30.170Z,94370.91
2023-04-15T03:06:57.947Z,94383.00
2023-04-15T03:09:25.831Z,94378.72
2023-04-15T03:11:54.878Z,94377.34
2023-04-15T03:14:22.530Z,94373.31
2023-04-15T03:16:50.574Z,94376.56
2023-04-15T03:19:18.264Z,94379.03
2023-04-15T03:21:46.038Z,94382.53
2023-04-15T03:24:13.802Z,94392.50
2023-04-15T03:26:41.489Z,94389.81
2023-04-15T03:29:10.792Z,94392.50
2023-04-15T03:31:38.533Z,94397.34
2023-04-15T03:34:06.614Z,94393.91
2023-04-15T03:36:34.450Z,94396.53
2023-04-15T03:39:03.347Z,94396.81
2023-04-15T03:41:31.108Z,94395.22
2023-04-15T03:43:58.784Z,94401.63
2023-04-15T03:46:28.061Z,94395.97
2023-04-15T03:48:56.141Z,94400.75
2023-04-15T03:51:23.861Z,94393.22
2023-04-15T03:53:51.761Z,94389.44
2023-04-15T03:56:19.451Z,94392.13
2023-04-15T03:58:47.141Z,94393.47
2023-04-15T04:01:14.937Z,94399.13
2023-04-15T04:03:44.128Z,94393.81
2023-04-15T04:06:12.618Z,94394.94
2023-04-15T04:08:40.334Z,94400.84
2023-04-15T04:11:08.055Z,94395.72
2023-04-15T04:13:35.988Z,94397.84
2023-04-15T04:16:04.763Z,94406.22
2023-04-15T04:18:32.854Z,94398.47
2023-04-15T04:21:02.158Z,94407.63
2023-04-15T04:23:29.940Z,94396.53
2023-04-15T04:25:57.770Z,94408.16
2023-04-15T04:28:25.780Z,94406.53
2023-04-15T04:30:53.753Z,94413.78
2023-04-15T04:33:21.696Z,94397.63
2023-04-15T04:35:49.474Z,94407.28
2023-04-15T04:38:18.853Z,94407.53
2023-04-15T04:40:46.707Z,94406.19
2023-04-15T04:43:14.880Z,94411.56
2023-04-15T04:45:42.949Z,94411.28
2023-04-15T04:48:10.858Z,94404.50
2023-04-15T04:50:39.823Z,94419.03
2023-04-15T04:53:07.570Z,94413.91
2023-04-15T04:55:37.566Z,94409.88
2023-04-15T04:58:05.307Z,94406.63
2023-04-15T05:00:33.050Z,94403.94
2023-04-15T05:03:01.173Z,94399.03
2023-04-15T05:05:29.052Z,94396.31
2023-04-15T05:07:56.842Z,94403.31
2023-04-15T05:10:24.666Z,94397.91
2023-04-15T05:12:53.762Z,94399.25
2023-04-15T05:15:21.686Z,94391.19
2023-04-15T05:17:49.452Z,94395.69
2023-04-15T05:20:17.450Z,94396.22
2023-04-15T05:22:45.203Z,94390.66
2023-04-15T05:25:12.974Z,94385.75
2023-04-15T05:27:40.749Z,94386.63
2023-04-15T05:30:12.765Z,94392.97
2023-04-15T05:32:41.501Z,94394.66
2023-04-15T05:35:09.492Z,94385.25
2023-04-15T05:37:37.346Z,94392.72
2023-04-15T05:40:05.620Z,94389.44
2023-04-15T05:42:33.424Z,94389.16
2023-04-15T05:45:01.505Z,94396.97
2023-04-15T05:47:30.797Z,94393.72
2023-04-15T05:49:59.151Z,94395.91
2023-04-15T05:52:27.330Z,94391.03
2023-04-15T05:54:55.139Z,94391.53
2023-04-15T05:57:23.012Z,94395.50
2023-04-15T05:59:52.357Z,94397.31
2023-04-15T06:02:20.417Z,94390.56
2023-04-15T06:04:49.620Z,94395.94
2023-04-15T06:07:17.366Z,94393.44
2023-04-15T06:09:45.276Z,94399.09
2023-04-15T06:12:13.206Z,94393.09
2023-04-15T06:14:41.341Z,94387.97
2023-04-15T06:17:09.072Z,94384.66
2023-04-15T06:19:37.328Z,94390.06
2023-04-15T06:22:07.299Z,94384.31
2023-04-15T06:24:37.076Z,94381.06
2023-04-15T06:27:05.242Z,94392.59
2023-04-15T06:29:33.002Z,94392.56
2023-04-15T06:32:01.026Z,94389.53
2023-04-15T06:34:28.876Z,94389.22
2023-04-15T06:36:57.543Z,94392.66
2023-04-15T06:39:26.715Z,94388.00
2023-04-15T06:41:54.589Z,94387.16
2023-04-15T06:44:22.381Z,94376.03
2023-04-15T06:46:50.049Z,94378.06
2023-04-15T06:49:17.881Z,94373.25
2023-04-15T06:51:45.619Z,94385.81
2023-04-15T06:54:13.369Z,94380.13
2023-04-15T06:56:42.587Z,94380.31
2023-04-15T06:59:10.345Z,94382.91
2023-04-15T07:01:38.041Z,94386.84
2023-04-15T07:04:06.216Z,94382.41
2023-04-15T07:06:34.094Z,94390.00
2023-04-15T07:09:03.266Z,94383.00
2023-04-15T07:11:31.317Z,94383.19
2023-04-15T07:14:00.429Z,94381.94
2023-04-15T07:16:29.406Z,94386.47
2023-04-15T07:18:57.635Z,94386.41
2023-04-15T07:21:25.677Z,94386.22
2023-04-15T07:23:53.367Z,94379.88
2023-04-15T07:26:21.461Z,94378.28
2023-04-15T07:28:49.550Z,94373.47
2023-04-15T07:31:18.704Z,94383.88
2023-04-15T07:33:46.505Z,94380.75
2023-04-15T07:36:14.374Z,94378.97
2023-04-15T07:38:42.547Z,94379.13
2023-04-15T07:41:10.605Z,94380.53
2023-04-15T07:43:38.768Z,94384.19
2023-04-15T07:46:06.973Z,94378.72
2023-04-15T07:48:37.038Z,94382.97
2023-04-15T07:51:05.652Z,94389.50
2023-04-15T07:53:34.007Z,94391.66
2023-04-15T07:56:01.743Z,94384.69
2023-04-15T07:58:29.419Z,94390.50
2023-04-15T08:00:57.230Z,94394.31
2023-04-15T08:03:25.002Z,94389.50
2023-04-15T08:05:54.371Z,94377.19
2023-04-15T08:08:22.394Z,94375.69
2023-04-15T08:10:52.466Z,94377.69
2023-04-15T08:13:20.831Z,94375.03
2023-04-15T08:16:16.145Z,94374.53
2023-04-15T08:18:43.963Z,94373.06
2023-04-15T08:21:13.335Z,94370.03
2023-04-15T08:23:41.184Z,94368.50
2023-04-15T08:26:09.003Z,94358.25
2023-04-15T08:28:36.873Z,94368.19
2023-04-15T08:31:04.718Z,94368.91
2023-04-15T08:33:32.491Z,94366.06
2023-04-15T08:36:00.268Z,94371.16
2023-04-15T08:38:29.288Z,94376.25
2023-04-15T08:40:58.743Z,94374.72
2023-04-15T08:43:30.633Z,94375.81
2023-04-15T08:46:01.566Z,94374.91
2023-04-15T08:48:31.553Z,94366.75
2023-04-15T08:51:00.130Z,94371.13
2023-04-15T08:53:30.757Z,94380.88
2023-04-15T08:56:01.549Z,94372.47
2023-04-15T08:58:30.344Z,94385.50
2023-04-15T09:00:58.756Z,94382.38
2023-04-15T09:03:27.436Z,94382.66
2023-04-15T09:05:56.180Z,94381.50
2023-04-15T09:08:24.122Z,94390.72
2023-04-15T09:10:54.861Z,94373.53
2023-04-15T09:13:22.953Z,94384.44
2023-04-15T09:15:51.389Z,94390.94
2023-04-15T09:18:29.748Z,94394.44
2023-04-15T09:20:57.836Z,94397.16
2023-04-15T09:23:25.767Z,94392.94
2023-04-15T09:25:55.030Z,94393.41
2023-04-15T09:28:27.556Z,94389.50
2023-04-15T09:30:58.734Z,94398.34
2023-04-15T09:33:27.424Z,94398.31
2023-04-15T09:36:00.602Z,94394.81
2023-04-15T09:38:28.756Z,94400.91
2023-04-15T09:40:58.452Z,94400.44
2023-04-15T09:43:39.631Z,94396.25
2023-04-15T09:46:07.796Z,94396.25
2023-04-15T09:48:35.912Z,94392.00
2023-04-15T09:51:03.867Z,94400.66
2023-04-15T09:53:35.418Z,94394.91
2023-04-15T09:56:07.570Z,94400.97
2023-04-15T09:58:38.676Z,94401.13
2023-04-15T10:01:09.192Z,94405.28
2023-04-15T10:03:37.574Z,94399.84
2023-04-15T10:06:06.012Z,94411.44
2023-04-15T10:08:36.048Z,94416.09
2023-04-15T10:11:07.269Z,94414.31
2023-04-15T10:13:37.505Z,94410.97
2023-04-15T10:16:08.504Z,94413.22
2023-04-15T10:18:41.785Z,94413.44
2023-04-15T10:21:11.130Z,94411.69
2023-04-15T10:23:39.987Z,94408.38
2023-04-15T10:26:12.385Z,94415.72
2023-04-15T10:28:40.479Z,94410.31
2023-04-15T10:31:09.440Z,94412.94
2023-04-15T10:33:38.894Z,94411.53
2023-04-15T10:36:07.861Z,94414.09
2023-04-15T10:38:37.551Z,94426.06
2023-04-15T10:41:21.958Z,94425.25
2023-04-15T10:43:52.943Z,94428.16
2023-04-15T10:46:23.756Z,94432.47
2023-04-15T10:48:53.403Z,94424.63
2023-04-15T10:51:32.325Z,94427.53
2023-04-15T10:54:01.008Z,94428.03
2023-04-15T10:56:31.839Z,94428.38
2023-04-15T10:59:02.202Z,94424.56
2023-04-15T11:01:52.864Z,94433.97
2023-04-15T11:04:53.752Z,94428.56
2023-04-15T11:07:52.103Z,94423.34
2023-04-15T11:10:57.192Z,94431.84
2023-04-15T11:13:29.293Z,94429.78
2023-04-15T11:16:01.811Z,94434.56
2023-04-15T11:18:34.843Z,94430.38
2023-04-15T11:21:05.345Z,94423.81
2023-04-15T11:23:39.368Z,94435.19
2023-04-15T11:26:09.893Z,94423.00
2023-04-15T11:28:41.238Z,94423.81
2023-04-15T11:31:11.789Z,94433.56
2023-04-15T11:33:46.889Z,94438.69
2023-04-15T11:36:14.983Z,94434.72
2023-04-15T11:38:48.394Z,94439.03
2023-04-15T11:41:16.668Z,94446.53
2023-04-15T11:43:45.892Z,94444.94
2023-04-15T11:46:13.763Z,94441.41
2023-04-15T11:48:45.038Z,94442.22
2023-04-15T11:51:13.741Z,94450.34
2023-04-15T11:53:44.605Z,94448.63
2023-04-15T11:56:18.450Z,94450.16
2023-04-15T11:58:48.354Z,94451.94
2023-04-15T12:01:16.188Z,94458.97
2023-04-15T12:03:46.926Z,94463.34
2023-04-15T12:06:19.093Z,94458.38
2023-04-15T12:08:54.131Z,94456.88
2023-04-15T12:11:23.067Z,94466.03
2023-04-15T12:13:52.541Z,94466.72
2023-04-15T12:16:21.010Z,94470.72
2023-04-15T12:18:52.011Z,94464.94
2023-04-15T12:21:20.670Z,94479.75
2023-04-15T12:23:52.223Z,94484.63
2023-04-15T12:26:27.455Z,94483.78
2023-04-15T12:28:57.478Z,94485.56
2023-04-15T12:31:25.229Z,94479.78
2023-04-15T12:33:52.978Z,94485.34
2023-04-15T12:36:20.815Z,94484.59
2023-04-15T12:38:48.474Z,94492.81
2023-04-15T12:41:16.196Z,94488.31
2023-04-15T12:43:45.555Z,94497.44
2023-04-15T12:46:15.601Z,94496.00
2023-04-15T12:48:43.620Z,94499.19
2023-04-15T12:51:11.376Z,94497.94
2023-04-15T12:53:39.041Z,94501.69
2023-04-15T12:56:07.754Z,94500.53
2023-04-15T12:58:36.016Z,94507.88
2023-04-15T13:01:03.961Z,94502.38
2023-04-15T13:03:33.265Z,94509.84
2023-04-15T13:06:02.273Z,94504.97
2023-04-15T13:08:29.932Z,94513.56
2023-04-15T13:10:57.948Z,94516.25
2023-04-15T13:13:25.661Z,94517.84
2023-04-15T13:15:53.439Z,94511.13
2023-04-15T13:18:21.115Z,94516.06
2023-04-15T13:20:50.351Z,94520.38
2023-04-15T13:23:18.383Z,94530.72
2023-04-15T13:25:46.471Z,94530.81
2023-04-15T13:28:14.209Z,94535.16
2023-04-15T13:30:42.912Z,94531.94
2023-04-15T13:33:11.270Z,94538.97
2023-04-15T13:35:38.951Z,94543.09
2023-04-15T13:38:07.956Z,94540.25
2023-04-15T13:40:35.918Z,94539.41
2023-04-15T13:43:04.735Z,94549.31
2023-04-15T13:45:32.878Z,94550.59
2023-04-15T13:48:01.176Z,94557.69
2023-04-15T13:50:29.274Z,94558.69
2023-04-15T13:52:56.994Z,94556.34
2023-04-15T13:55:27.066Z,94559.97
2023-04-15T13:57:55.378Z,94567.09
2023-04-15T14:00:23.210Z,94570.22
2023-04-15T14:02:51.151Z,94581.66
2023-04-15T14:05:19.273Z,94579.25
2023-04-15T14:07:47.087Z,94584.88
2023-04-15T14:10:14.883Z,94574.53
2023-04-15T14:12:44.072Z,94580.97
2023-04-15T14:15:12.018Z,94578.94
2023-04-15T14:17:39.758Z,94585.16
2023-04-15T14:20:09.566Z,94593.38
2023-04-15T14:22:37.438Z,94593.56
2023-04-15T14:25:06.395Z,94595.94
2023-04-15T14:27:34.087Z,94603.03
2023-04-15T14:30:03.333Z,94604.28
2023-04-15T14:32:31.040Z,94622.25
2023-04-15T14:34:58.753Z,94621.34
2023-04-15T14:37:26.400Z,94615.56
2023-04-15T14:39:54.125Z,94622.78
2023-04-15T14:42:22.179Z,94619.38
2023-04-15T14:44:50.009Z,94625.09
2023-04-15T14:47:19.525Z,94620.69
2023-04-15T14:49:48.321Z,94627.50
2023-04-15T14:52:23.323Z,94625.06
2023-04-15T14:54:51.241Z,94629.81
2023-04-15T14:57:18.970Z,94642.06
2023-04-15T14:59:46.660Z,94634.72
2023-04-15T15:02:21.234Z,94640.13
2023-04-15T15:05:02.395Z,94650.06
2023-04-15T15:07:30.230Z,94659.03
2023-04-15T15:09:57.924Z,94656.00
2023-04-15T15:12:25.789Z,94662.91
2023-04-15T15:14:53.818Z,94671.03
2023-04-15T15:17:29.864Z,94669.56
2023-04-15T15:19:57.733Z,94670.31
2023-04-15T15:22:27.081Z,94683.03
2023-04-15T15:24:54.932Z,94681.19
2023-04-15T15:27:22.874Z,94692.72
2023-04-15T15:29:51.102Z,94694.31
2023-04-15T15:32:19.032Z,94708.38
2023-04-15T15:34:46.936Z,94716.34
2023-04-15T15:37:14.892Z,94728.72
2023-04-15T15:39:44.218Z,94727.31
2023-04-15T15:42:12.190Z,94739.47
2023-04-15T15:44:40.105Z,94741.75
2023-04-15T15:47:08.059Z,94743.25
2023-04-15T15:49:35.931Z,94753.91
2023-04-15T15:52:03.938Z,94755.53
2023-04-15T15:54:31.966Z,94755.81
2023-04-15T15:57:01.654Z,94751.97
2023-04-15T15:59:31.894Z,94752.88
2023-04-15T16:02:00.053Z,94759.63
2023-04-15T16:04:27.982Z,94753.00
2023-04-15T16:06:55.926Z,94763.03
2023-04-15T16:09:23.657Z,94768.44
2023-04-15T16:11:51.446Z,94770.84
2023-04-15T16:14:21.912Z,94774.84
2023-04-15T16:16:49.660Z,94770.81
2023-04-15T16:19:17.431Z,94779.97
2023-04-15T16:21:45.758Z,94781.63
2023-04-15T16:24:13.479Z,94781.91
2023-04-15T16:26:41.462Z,94785.66
2023-04-15T16:29:10.141Z,94789.69
2023-04-15T16:31:41.413Z,94790.25
2023-04-15T16:34:09.329Z,94795.66
2023-04-15T16:36:37.070Z,94796.19
2023-04-15T16:39:05.074Z,94796.22
2023-04-15T16:41:34.474Z,94801.59
2023-04-15T16:44:03.204Z,94802.69
2023-04-15T16:46:31.217Z,94797.56
2023-04-15T16:49:00.851Z,94806.22
2023-04-15T16:51:31.541Z,94820.22
2023-04-15T16:53:59.429Z,94818.88
2023-04-15T16:56:27.262Z,94815.13
2023-04-15T16:58:55.080Z,94829.78
2023-04-15T17:01:23.124Z,94816.56
2023-04-15T17:03:52.298Z,94822.81
2023-04-15T17:06:23.136Z,94825.59
2023-04-15T17:08:51.575Z,94836.69
2023-04-15T17:11:19.276Z,94837.84
2023-04-15T17:13:47.697Z,94840.59
2023-04-15T17:16:15.571Z,94848.47
2023-04-15T17:18:43.373Z,94854.97
2023-04-15T17:21:11.177Z,94864.66
2023-04-15T17:23:40.217Z,94870.03
2023-04-15T17:26:07.906Z,94867.91
2023-04-15T17:28:36.158Z,94871.72
2023-04-15T17:31:05.064Z,94880.06
2023-04-15T17:34:00.404Z,94879.25
2023-04-15T17:36:20.645Z,94888.69
2023-04-15T17:38:49.981Z,94895.97
2023-04-15T17:41:17.744Z,94903.25
2023-04-15T17:43:45.476Z,94902.47
2023-04-15T17:46:13.495Z,94916.75
2023-04-15T17:48:41.432Z,94910.28
2023-04-15T17:51:09.115Z,94919.47
2023-04-15T17:53:36.804Z,94924.56
2023-04-15T17:56:06.363Z,94923.50
2023-04-15T17:58:34.028Z,94927.81
2023-04-15T18:01:01.726Z,94924.03
2023-04-15T18:03:29.522Z,94930.50
2023-04-15T18:05:57.485Z,94941.28
2023-04-15T18:08:25.242Z,94940.47
2023-04-15T18:10:52.935Z,94941.53
2023-04-15T18:13:22.019Z,94945.59
2023-04-15T18:15:54.928Z,94949.91
2023-04-15T18:18:23.330Z,94957.41
2023-04-15T18:20:50.985Z,94953.09
2023-04-15T18:23:18.651Z,94964.97
2023-04-15T18:25:46.460Z,94966.31
2023-04-15T18:28:14.154Z,94969.25
2023-04-15T18:30:43.229Z,94983.00
2023-04-15T18:33:11.625Z,94977.09
2023-04-15T18:35:39.682Z,94981.41
2023-04-15T18:38:07.403Z,94994.59
2023-04-15T18:40:35.176Z,94997.28
2023-04-15T18:43:02.942Z,94998.63
2023-04-15T18:45:31.059Z,94993.78
2023-04-15T18:48:00.293Z,95006.44
2023-04-15T18:50:28.023Z,95004.81
2023-04-15T18:52:56.820Z,95011.84
2023-04-15T18:55:24.868Z,95017.47
2023-04-15T18:58:07.501Z,95028.78
2023-04-15T19:00:40.632Z,95027.72
2023-04-15T19:03:10.123Z,95025.53
2023-04-15T19:05:38.171Z,95022.31
2023-04-15T19:08:09.072Z,95022.88
2023-04-15T19:10:36.867Z,95020.44
2023-04-15T19:13:04.862Z,95030.66
2023-04-15T19:15:32.899Z,95035.78
2023-04-15T19:18:00.688Z,95034.16
2023-04-15T19:20:30.198Z,95036.59
2023-04-15T19:22:57.994Z,95048.44
2023-04-15T19:25:26.047Z,95043.34
2023-04-15T19:27:53.726Z,95047.63
2023-04-15T19:30:21.822Z,95056.00
2023-04-15T19:32:49.674Z,95053.56
2023-04-15T19:35:17.542Z,95051.94
2023-04-15T19:37:48.463Z,95058.94
2023-04-15T19:40:16.245Z,95054.38
2023-04-15T19:42:43.913Z,95052.75
2023-04-15T19:45:12.655Z,95059.22
2023-04-15T19:47:40.556Z,95061.38
2023-04-15T19:50:11.201Z,95061.94
2023-04-15T19:52:39.342Z,95075.91
2023-04-15T19:55:09.389Z,95068.94
2023-04-15T19:57:37.595Z,95074.06
2023-04-15T20:00:06.941Z,95068.13
2023-04-15T20:02:34.814Z,95077.00
2023-04-15T20:05:02.612Z,95070.53
2023-04-15T20:07:30.551Z,95074.56
2023-04-15T20:09:58.346Z,95077.81
2023-04-15T20:12:51.562Z,95077.03
2023-04-15T20:15:15.921Z,95073.53
2023-04-15T20:17:43.688Z,95087.25
2023-04-15T20:20:11.795Z,95084.00
2023-04-15T20:22:39.519Z,95091.81
2023-04-15T20:25:08.608Z,95095.88
2023-04-15T20:27:37.751Z,95097.47
2023-04-15T20:30:06.409Z,95104.75
2023-04-15T20:32:36.215Z,95098.56
2023-04-15T20:35:05.234Z,95110.13
2023-04-15T20:37:33.830Z,95109.06
2023-04-15T20:40:02.242Z,95106.38
2023-04-15T20:42:34.088Z,95105.00
2023-04-15T20:45:03.514Z,95118.75
2023-04-15T20:47:31.358Z,95116.84
2023-04-15T20:49:59.133Z,95115.22
2023-04-15T20:52:26.958Z,95120.06
2023-04-15T20:54:54.817Z,95116.56
2023-04-15T20:57:24.634Z,95120.06
2023-04-15T20:59:52.448Z,95126.00
2023-04-15T21:02:23.235Z,95124.09
2023-04-15T21:04:51.317Z,95126.22
2023-04-15T21:07:19.034Z,95131.63
2023-04-15T21:09:47.300Z,95130.81
2023-04-15T21:12:14.992Z,95142.06
2023-04-15T21:14:42.682Z,95134.28
2023-04-15T21:17:11.315Z,95138.56
2023-04-15T21:19:41.183Z,95145.31
2023-04-15T21:22:08.970Z,95145.06
2023-04-15T21:24:36.617Z,95150.69
2023-04-15T21:27:04.476Z,95151.22
2023-04-15T21:29:32.139Z,95160.91
2023-04-15T21:31:59.863Z,95165.78
2023-04-15T21:34:27.640Z,95164.66
2023-04-15T21:36:56.651Z,95159.28
2023-04-15T21:39:24.858Z,95164.66
2023-04-15T21:41:52.729Z,95165.72
2023-04-15T21:44:20.522Z,95175.13
2023-04-15T21:46:48.325Z,95171.06
2023-04-15T21:49:16.039Z,95178.06
2023-04-15T21:51:43.754Z,95172.13
2023-04-15T21:54:12.813Z,95174.81
2023-04-15T21:56:40.568Z,95184.78
2023-04-15T21:59:08.319Z,95176.94
2023-04-15T22:01:36.193Z,95181.75
2023-04-15T22:04:04.103Z,95186.31
2023-04-15T22:06:31.789Z,95184.69
2023-04-15T22:08:59.568Z,95191.97
2023-04-15T22:11:30.363Z,95190.63
2023-04-15T22:13:58.541Z,95197.91
2023-04-15T22:16:27.110Z,95200.84
2023-04-15T22:18:55.281Z,95207.59
2023-04-15T22:21:23.105Z,95194.94
2023-04-15T22:23:51.073Z,95209.47
2023-04-15T22:26:18.772Z,95219.66
2023-04-15T22:28:48.089Z,95214.25
2023-04-15T22:31:15.878Z,95217.69
2023-04-15T22:33:43.667Z,95216.38
2023-04-15T22:36:11.514Z,95214.47
2023-04-15T22:38:39.189Z,95217.97
2023-04-15T22:41:06.905Z,95226.03
2023-04-15T22:43:34.648Z,95229.25
2023-04-15T22:46:04.020Z,95231.94
2023-04-15T22:48:31.837Z,95235.16
2023-04-15T22:50:59.522Z,95230.84
2023-04-15T22:59:06.573Z,95239.38
2023-04-15T23:01:34.419Z,95234.28
2023-04-15T23:04:07.328Z,95230.78
2023-04-15T23:06:38.047Z,95228.88
2023-04-15T23:09:05.820Z,95230.78
2023-04-15T23:11:33.456Z,95236.13
2023-04-15T23:14:01.118Z,95244.50
2023-04-15T23:16:30.158Z,95236.41
2023-04-15T23:18:57.831Z,95238.56
2023-04-15T23:21:27.311Z,95245.81
2023-04-15T23:23:55.018Z,95245.78
2023-04-15T23:26:22.661Z,95249.28
2023-04-15T23:28:50.358Z,95244.41
2023-04-15T23:31:18.126Z,95246.56
2023-04-15T23:33:47.132Z,95245.50
2023-04-15T23:36:14.799Z,95259.44
2023-04-15T23:38:43.427Z,95255.44
2023-04-15T23:41:11.944Z,95255.44
2023-04-15T23:43:39.615Z,95251.63
2023-04-15T23:46:07.480Z,95254.06
2023-04-15T23:48:35.148Z,95258.06
2023-04-15T23:51:04.402Z,95268.50
2023-04-15T23:53:33.066Z,95266.88
2023-04-15T23:56:01.381Z,95266.38
2023-04-15T23:58:29.077Z,95263.66
